sensor_id;sensor_type;location;lat;lon;timestamp;temperature;humidity
59307;DHT22;47983;53.016;-2.260;2023-05-20T00:00:33;11.10;99.90
59307;DHT22;47983;53.016;-2.260;2023-05-20T00:03:01;11.10;99.90
59307;DHT22;47983;53.016;-2.260;2023-05-20T00:05:29;11.00;99.90
59307;DHT22;47983;53.016;-2.260;2023-05-20T00:07:57;11.00;99.90
59307;DHT22;47983;53.016;-2.260;2023-05-20T00:10:26;10.90;99.90
59307;DHT22;47983;53.016;-2.260;2023-05-20T00:12:54;10.90;99.90
59307;DHT22;47983;53.016;-2.260;2023-05-20T00:15:22;10.80;99.90
59307;DHT22;47983;53.016;-2.260;2023-05-20T00:17:50;10.80;99.90
59307;DHT22;47983;53.016;-2.260;2023-05-20T00:20:18;10.80;99.90
59307;DHT22;47983;53.016;-2.260;2023-05-20T00:22:46;10.70;99.90
59307;DHT22;47983;53.016;-2.260;2023-05-20T00:25:14;10.70;99.90
59307;DHT22;47983;53.016;-2.260;2023-05-20T00:27:42;10.60;99.90
59307;DHT22;47983;53.016;-2.260;2023-05-20T00:30:10;10.60;99.90
59307;DHT22;47983;53.016;-2.260;2023-05-20T00:32:39;10.50;99.90
59307;DHT22;47983;53.016;-2.260;2023-05-20T00:35:07;10.50;99.90
59307;DHT22;47983;53.016;-2.260;2023-05-20T00:37:37;10.40;99.90
59307;DHT22;47983;53.016;-2.260;2023-05-20T00:40:05;10.40;99.90
59307;DHT22;47983;53.016;-2.260;2023-05-20T00:42:33;10.30;99.90
59307;DHT22;47983;53.016;-2.260;2023-05-20T00:45:01;10.30;99.90
59307;DHT22;47983;53.016;-2.260;2023-05-20T00:47:32;10.20;99.90
59307;DHT22;47983;53.016;-2.260;2023-05-20T00:50:02;10.20;99.90
59307;DHT22;47983;53.016;-2.260;2023-05-20T00:52:31;10.20;99.90
59307;DHT22;47983;53.016;-2.260;2023-05-20T00:54:59;10.10;99.90
59307;DHT22;47983;53.016;-2.260;2023-05-20T00:57:27;10.10;99.90
59307;DHT22;47983;53.016;-2.260;2023-05-20T00:59:55;10.00;99.90
59307;DHT22;47983;53.016;-2.260;2023-05-20T01:02:24;10.00;99.90
59307;DHT22;47983;53.016;-2.260;2023-05-20T01:04:52;10.00;99.90
59307;DHT22;47983;53.016;-2.260;2023-05-20T01:07:23;9.90;99.90
59307;DHT22;47983;53.016;-2.260;2023-05-20T01:09:52;9.90;99.90
59307;DHT22;47983;53.016;-2.260;2023-05-20T01:12:25;9.80;99.90
59307;DHT22;47983;53.016;-2.260;2023-05-20T01:15:11;9.80;99.90
59307;DHT22;47983;53.016;-2.260;2023-05-20T01:17:46;9.80;99.90
59307;DHT22;47983;53.016;-2.260;2023-05-20T01:20:18;9.70;99.90
59307;DHT22;47983;53.016;-2.260;2023-05-20T01:22:48;9.70;99.90
59307;DHT22;47983;53.016;-2.260;2023-05-20T01:25:16;9.60;99.90
59307;DHT22;47983;53.016;-2.260;2023-05-20T01:27:46;9.60;99.90
59307;DHT22;47983;53.016;-2.260;2023-05-20T01:30:15;9.60;99.90
59307;DHT22;47983;53.016;-2.260;2023-05-20T01:32:53;9.60;99.90
59307;DHT22;47983;53.016;-2.260;2023-05-20T01:35:22;9.50;99.90
59307;DHT22;47983;53.016;-2.260;2023-05-20T01:37:51;9.50;99.90
59307;DHT22;47983;53.016;-2.260;2023-05-20T01:40:20;9.40;99.90
59307;DHT22;47983;53.016;-2.260;2023-05-20T01:42:50;9.40;99.90
59307;DHT22;47983;53.016;-2.260;2023-05-20T01:45:20;9.40;99.90
59307;DHT22;47983;53.016;-2.260;2023-05-20T01:47:49;9.40;99.90
59307;DHT22;47983;53.016;-2.260;2023-05-20T01:50:17;9.40;99.90
59307;DHT22;47983;53.016;-2.260;2023-05-20T01:52:45;9.30;99.90
59307;DHT22;47983;53.016;-2.260;2023-05-20T01:55:13;9.30;99.90
59307;DHT22;47983;53.016;-2.260;2023-05-20T01:57:41;9.30;99.90
59307;DHT22;47983;53.016;-2.260;2023-05-20T02:00:10;9.20;99.90
59307;DHT22;47983;53.016;-2.260;2023-05-20T02:02:41;9.20;99.90
59307;DHT22;47983;53.016;-2.260;2023-05-20T02:05:11;9.20;99.90
59307;DHT22;47983;53.016;-2.260;2023-05-20T02:07:42;9.10;99.90
59307;DHT22;47983;53.016;-2.260;2023-05-20T02:10:10;9.10;99.90
59307;DHT22;47983;53.016;-2.260;2023-05-20T02:12:38;9.00;99.90
59307;DHT22;47983;53.016;-2.260;2023-05-20T02:15:06;9.00;99.90
59307;DHT22;47983;53.016;-2.260;2023-05-20T02:17:35;9.00;99.90
59307;DHT22;47983;53.016;-2.260;2023-05-20T02:20:04;9.00;99.90
59307;DHT22;47983;53.016;-2.260;2023-05-20T02:22:34;8.90;99.90
59307;DHT22;47983;53.016;-2.260;2023-05-20T02:25:03;8.90;99.90
59307;DHT22;47983;53.016;-2.260;2023-05-20T02:27:31;8.90;99.90
59307;DHT22;47983;53.016;-2.260;2023-05-20T02:29:59;8.80;99.90
59307;DHT22;47983;53.016;-2.260;2023-05-20T02:32:28;8.80;99.90
59307;DHT22;47983;53.016;-2.260;2023-05-20T02:34:56;8.80;99.90
59307;DHT22;47983;53.016;-2.260;2023-05-20T02:37:24;8.80;99.90
59307;DHT22;47983;53.016;-2.260;2023-05-20T02:39:53;8.70;99.90
59307;DHT22;47983;53.016;-2.260;2023-05-20T02:42:22;8.60;99.90
59307;DHT22;47983;53.016;-2.260;2023-05-20T02:44:50;8.70;99.90
59307;DHT22;47983;53.016;-2.260;2023-05-20T02:47:19;8.60;99.90
59307;DHT22;47983;53.016;-2.260;2023-05-20T02:49:47;8.60;99.90
59307;DHT22;47983;53.016;-2.260;2023-05-20T02:52:15;8.60;99.90
59307;DHT22;47983;53.016;-2.260;2023-05-20T02:54:44;8.70;99.90
59307;DHT22;47983;53.016;-2.260;2023-05-20T02:57:11;8.70;99.90
59307;DHT22;47983;53.016;-2.260;2023-05-20T02:59:39;8.80;99.90
59307;DHT22;47983;53.016;-2.260;2023-05-20T03:02:08;8.80;99.90
59307;DHT22;47983;53.016;-2.260;2023-05-20T03:04:36;8.80;99.90
59307;DHT22;47983;53.016;-2.260;2023-05-20T03:07:07;8.90;99.90
59307;DHT22;47983;53.016;-2.260;2023-05-20T03:09:35;8.90;99.90
59307;DHT22;47983;53.016;-2.260;2023-05-20T03:12:04;8.90;99.90
59307;DHT22;47983;53.016;-2.260;2023-05-20T03:14:32;8.90;99.90
59307;DHT22;47983;53.016;-2.260;2023-05-20T03:17:00;8.90;99.90
59307;DHT22;47983;53.016;-2.260;2023-05-20T03:19:28;8.80;99.90
59307;DHT22;47983;53.016;-2.260;2023-05-20T03:21:56;8.80;99.90
59307;DHT22;47983;53.016;-2.260;2023-05-20T03:24:25;8.80;99.90
59307;DHT22;47983;53.016;-2.260;2023-05-20T03:26:53;8.70;99.90
59307;DHT22;47983;53.016;-2.260;2023-05-20T03:29:22;8.70;99.90
59307;DHT22;47983;53.016;-2.260;2023-05-20T03:31:50;8.70;99.90
59307;DHT22;47983;53.016;-2.260;2023-05-20T03:34:18;8.60;99.90
59307;DHT22;47983;53.016;-2.260;2023-05-20T03:36:49;8.60;99.90
59307;DHT22;47983;53.016;-2.260;2023-05-20T03:39:17;8.60;99.90
59307;DHT22;47983;53.016;-2.260;2023-05-20T03:41:46;8.50;99.90
59307;DHT22;47983;53.016;-2.260;2023-05-20T03:44:16;8.50;99.90
59307;DHT22;47983;53.016;-2.260;2023-05-20T03:46:46;8.50;99.90
59307;DHT22;47983;53.016;-2.260;2023-05-20T03:49:14;8.50;99.90
59307;DHT22;47983;53.016;-2.260;2023-05-20T03:51:42;8.40;99.90
59307;DHT22;47983;53.016;-2.260;2023-05-20T03:54:12;8.40;99.90
59307;DHT22;47983;53.016;-2.260;2023-05-20T03:56:40;8.30;99.90
59307;DHT22;47983;53.016;-2.260;2023-05-20T03:59:08;8.30;99.90
59307;DHT22;47983;53.016;-2.260;2023-05-20T04:01:36;8.30;99.90
59307;DHT22;47983;53.016;-2.260;2023-05-20T04:04:04;8.20;99.90
59307;DHT22;47983;53.016;-2.260;2023-05-20T04:06:32;8.20;99.90
59307;DHT22;47983;53.016;-2.260;2023-05-20T04:09:00;8.10;99.90
59307;DHT22;47983;53.016;-2.260;2023-05-20T04:11:28;8.10;99.90
59307;DHT22;47983;53.016;-2.260;2023-05-20T04:13:56;8.10;99.90
59307;DHT22;47983;53.016;-2.260;2023-05-20T04:16:27;8.00;99.90
59307;DHT22;47983;53.016;-2.260;2023-05-20T04:18:56;8.00;99.90
59307;DHT22;47983;53.016;-2.260;2023-05-20T04:21:26;7.90;99.90
59307;DHT22;47983;53.016;-2.260;2023-05-20T04:23:54;7.90;99.90
59307;DHT22;47983;53.016;-2.260;2023-05-20T04:26:22;7.80;99.90
59307;DHT22;47983;53.016;-2.260;2023-05-20T04:28:49;7.80;99.90
59307;DHT22;47983;53.016;-2.260;2023-05-20T04:31:17;7.80;99.90
59307;DHT22;47983;53.016;-2.260;2023-05-20T04:33:47;7.80;99.90
59307;DHT22;47983;53.016;-2.260;2023-05-20T04:36:15;7.80;99.90
59307;DHT22;47983;53.016;-2.260;2023-05-20T04:38:44;7.80;99.90
59307;DHT22;47983;53.016;-2.260;2023-05-20T04:41:11;7.70;99.90
59307;DHT22;47983;53.016;-2.260;2023-05-20T04:43:39;7.70;99.90
59307;DHT22;47983;53.016;-2.260;2023-05-20T04:46:07;7.70;99.90
59307;DHT22;47983;53.016;-2.260;2023-05-20T04:48:36;7.60;99.90
59307;DHT22;47983;53.016;-2.260;2023-05-20T04:51:04;7.60;99.90
59307;DHT22;47983;53.016;-2.260;2023-05-20T04:53:33;7.60;99.90
59307;DHT22;47983;53.016;-2.260;2023-05-20T04:56:02;7.60;99.90
59307;DHT22;47983;53.016;-2.260;2023-05-20T04:58:31;7.60;99.90
59307;DHT22;47983;53.016;-2.260;2023-05-20T05:01:00;7.60;99.90
59307;DHT22;47983;53.016;-2.260;2023-05-20T05:03:29;7.60;99.90
59307;DHT22;47983;53.016;-2.260;2023-05-20T05:05:58;7.60;99.90
59307;DHT22;47983;53.016;-2.260;2023-05-20T05:08:26;7.60;99.90
59307;DHT22;47983;53.016;-2.260;2023-05-20T05:10:54;7.60;99.90
59307;DHT22;47983;53.016;-2.260;2023-05-20T05:13:22;7.70;99.90
59307;DHT22;47983;53.016;-2.260;2023-05-20T05:15:58;7.70;99.90
59307;DHT22;47983;53.016;-2.260;2023-05-20T05:18:28;7.70;99.90
59307;DHT22;47983;53.016;-2.260;2023-05-20T05:21:00;7.80;99.90
59307;DHT22;47983;53.016;-2.260;2023-05-20T05:23:29;7.80;99.90
59307;DHT22;47983;53.016;-2.260;2023-05-20T05:25:57;7.80;99.90
59307;DHT22;47983;53.016;-2.260;2023-05-20T05:28:25;7.80;99.90
59307;DHT22;47983;53.016;-2.260;2023-05-20T05:30:54;7.90;99.90
59307;DHT22;47983;53.016;-2.260;2023-05-20T05:33:26;7.90;99.90
59307;DHT22;47983;53.016;-2.260;2023-05-20T05:35:55;8.00;99.90
59307;DHT22;47983;53.016;-2.260;2023-05-20T05:38:26;7.90;99.90
59307;DHT22;47983;53.016;-2.260;2023-05-20T05:40:54;8.00;99.90
59307;DHT22;47983;53.016;-2.260;2023-05-20T05:43:22;8.00;99.90
59307;DHT22;47983;53.016;-2.260;2023-05-20T05:45:51;8.10;99.90
59307;DHT22;47983;53.016;-2.260;2023-05-20T05:48:20;8.10;99.90
59307;DHT22;47983;53.016;-2.260;2023-05-20T05:50:50;8.10;99.90
59307;DHT22;47983;53.016;-2.260;2023-05-20T05:53:20;8.20;99.90
59307;DHT22;47983;53.016;-2.260;2023-05-20T05:55:49;8.20;99.90
59307;DHT22;47983;53.016;-2.260;2023-05-20T05:58:17;8.20;99.90
59307;DHT22;47983;53.016;-2.260;2023-05-20T06:00:45;8.30;99.90
59307;DHT22;47983;53.016;-2.260;2023-05-20T06:03:13;8.30;99.90
59307;DHT22;47983;53.016;-2.260;2023-05-20T06:05:44;8.40;99.90
59307;DHT22;47983;53.016;-2.260;2023-05-20T06:08:13;8.40;99.90
59307;DHT22;47983;53.016;-2.260;2023-05-20T06:10:45;8.50;99.90
59307;DHT22;47983;53.016;-2.260;2023-05-20T06:13:15;8.60;99.90
59307;DHT22;47983;53.016;-2.260;2023-05-20T06:15:44;11.10;99.90
59307;DHT22;47983;53.016;-2.260;2023-05-20T06:18:12;8.70;99.90
59307;DHT22;47983;53.016;-2.260;2023-05-20T06:20:41;8.80;99.90
59307;DHT22;47983;53.016;-2.260;2023-05-20T06:23:09;8.80;99.90
59307;DHT22;47983;53.016;-2.260;2023-05-20T06:25:57;8.90;99.90
59307;DHT22;47983;53.016;-2.260;2023-05-20T06:28:26;8.90;99.90
59307;DHT22;47983;53.016;-2.260;2023-05-20T06:30:55;9.00;99.90
59307;DHT22;47983;53.016;-2.260;2023-05-20T06:33:26;9.10;99.90
59307;DHT22;47983;53.016;-2.260;2023-05-20T06:35:59;9.20;99.90
59307;DHT22;47983;53.016;-2.260;2023-05-20T06:38:28;9.30;99.90
59307;DHT22;47983;53.016;-2.260;2023-05-20T06:40:56;9.40;99.90
59307;DHT22;47983;53.016;-2.260;2023-05-20T06:43:25;9.50;99.90
59307;DHT22;47983;53.016;-2.260;2023-05-20T06:46:13;9.60;99.90
59307;DHT22;47983;53.016;-2.260;2023-05-20T06:48:47;9.70;99.90
59307;DHT22;47983;53.016;-2.260;2023-05-20T06:51:22;9.80;99.90
59307;DHT22;47983;53.016;-2.260;2023-05-20T06:53:50;9.90;99.90
59307;DHT22;47983;53.016;-2.260;2023-05-20T06:56:19;13.80;99.90
59307;DHT22;47983;53.016;-2.260;2023-05-20T06:58:48;10.10;99.90
59307;DHT22;47983;53.016;-2.260;2023-05-20T07:01:17;10.20;99.90
59307;DHT22;47983;53.016;-2.260;2023-05-20T07:03:46;10.30;99.90
59307;DHT22;47983;53.016;-2.260;2023-05-20T07:06:15;10.30;99.90
59307;DHT22;47983;53.016;-2.260;2023-05-20T07:11:12;10.70;99.90
59307;DHT22;47983;53.016;-2.260;2023-05-20T07:13:40;10.70;99.90
59307;DHT22;47983;53.016;-2.260;2023-05-20T07:16:08;10.80;99.90
59307;DHT22;47983;53.016;-2.260;2023-05-20T07:18:39;10.90;99.90
59307;DHT22;47983;53.016;-2.260;2023-05-20T07:21:10;11.00;99.90
59307;DHT22;47983;53.016;-2.260;2023-05-20T07:23:57;11.00;99.90
59307;DHT22;47983;53.016;-2.260;2023-05-20T07:26:27;11.10;99.90
59307;DHT22;47983;53.016;-2.260;2023-05-20T07:28:57;11.20;99.90
59307;DHT22;47983;53.016;-2.260;2023-05-20T07:31:25;11.30;99.90
59307;DHT22;47983;53.016;-2.260;2023-05-20T07:33:53;11.40;99.90
59307;DHT22;47983;53.016;-2.260;2023-05-20T07:36:22;11.40;99.90
59307;DHT22;47983;53.016;-2.260;2023-05-20T07:38:53;11.60;99.90
59307;DHT22;47983;53.016;-2.260;2023-05-20T07:41:33;11.70;99.90
59307;DHT22;47983;53.016;-2.260;2023-05-20T07:44:06;11.70;99.90
59307;DHT22;47983;53.016;-2.260;2023-05-20T07:46:38;11.80;99.90
59307;DHT22;47983;53.016;-2.260;2023-05-20T07:49:07;11.90;99.90
59307;DHT22;47983;53.016;-2.260;2023-05-20T07:51:36;12.00;99.90
59307;DHT22;47983;53.016;-2.260;2023-05-20T07:54:05;12.20;99.90
59307;DHT22;47983;53.016;-2.260;2023-05-20T07:59:01;12.30;99.90
59307;DHT22;47983;53.016;-2.260;2023-05-20T08:01:34;12.40;99.90
59307;DHT22;47983;53.016;-2.260;2023-05-20T08:04:04;12.50;99.90
59307;DHT22;47983;53.016;-2.260;2023-05-20T08:06:32;12.60;99.90
59307;DHT22;47983;53.016;-2.260;2023-05-20T08:09:03;12.70;99.90
59307;DHT22;47983;53.016;-2.260;2023-05-20T08:11:38;12.80;99.90
59307;DHT22;47983;53.016;-2.260;2023-05-20T08:14:06;12.90;99.90
59307;DHT22;47983;53.016;-2.260;2023-05-20T08:16:41;13.00;99.90
59307;DHT22;47983;53.016;-2.260;2023-05-20T08:19:10;13.10;99.90
59307;DHT22;47983;53.016;-2.260;2023-05-20T08:21:38;13.20;99.90
59307;DHT22;47983;53.016;-2.260;2023-05-20T08:24:06;13.30;99.90
59307;DHT22;47983;53.016;-2.260;2023-05-20T08:26:35;13.30;99.90
59307;DHT22;47983;53.016;-2.260;2023-05-20T08:29:03;13.40;99.90
59307;DHT22;47983;53.016;-2.260;2023-05-20T08:31:32;13.60;99.90
59307;DHT22;47983;53.016;-2.260;2023-05-20T08:34:00;13.60;99.90
59307;DHT22;47983;53.016;-2.260;2023-05-20T08:36:28;13.70;99.90
59307;DHT22;47983;53.016;-2.260;2023-05-20T08:38:58;13.70;99.90
59307;DHT22;47983;53.016;-2.260;2023-05-20T08:41:28;13.80;99.90
59307;DHT22;47983;53.016;-2.260;2023-05-20T08:43:58;13.80;99.90
59307;DHT22;47983;53.016;-2.260;2023-05-20T08:46:30;13.90;99.90
59307;DHT22;47983;53.016;-2.260;2023-05-20T08:48:59;14.00;99.90
59307;DHT22;47983;53.016;-2.260;2023-05-20T08:51:27;14.00;99.90
59307;DHT22;47983;53.016;-2.260;2023-05-20T08:53:58;14.10;99.90
59307;DHT22;47983;53.016;-2.260;2023-05-20T08:56:26;14.20;99.90
59307;DHT22;47983;53.016;-2.260;2023-05-20T08:58:57;14.30;99.90
59307;DHT22;47983;53.016;-2.260;2023-05-20T09:01:25;14.40;99.90
59307;DHT22;47983;53.016;-2.260;2023-05-20T09:03:53;14.40;99.90
59307;DHT22;47983;53.016;-2.260;2023-05-20T09:06:21;14.50;99.90
59307;DHT22;47983;53.016;-2.260;2023-05-20T09:08:50;14.50;99.90
59307;DHT22;47983;53.016;-2.260;2023-05-20T09:11:19;14.60;99.90
59307;DHT22;47983;53.016;-2.260;2023-05-20T09:13:49;14.70;99.90
59307;DHT22;47983;53.016;-2.260;2023-05-20T09:16:18;14.70;99.90
59307;DHT22;47983;53.016;-2.260;2023-05-20T09:18:46;14.80;99.90
59307;DHT22;47983;53.016;-2.260;2023-05-20T09:21:14;14.90;99.90
59307;DHT22;47983;53.016;-2.260;2023-05-20T09:23:46;15.00;99.90
59307;DHT22;47983;53.016;-2.260;2023-05-20T09:26:17;15.10;99.90
59307;DHT22;47983;53.016;-2.260;2023-05-20T09:28:45;15.20;99.90
59307;DHT22;47983;53.016;-2.260;2023-05-20T09:31:13;15.40;99.90
59307;DHT22;47983;53.016;-2.260;2023-05-20T09:33:42;15.50;99.90
59307;DHT22;47983;53.016;-2.260;2023-05-20T09:36:12;15.50;99.90
59307;DHT22;47983;53.016;-2.260;2023-05-20T09:38:43;15.60;99.90
59307;DHT22;47983;53.016;-2.260;2023-05-20T09:41:14;15.70;99.90
59307;DHT22;47983;53.016;-2.260;2023-05-20T09:43:42;15.90;99.90
59307;DHT22;47983;53.016;-2.260;2023-05-20T09:46:11;16.00;99.90
59307;DHT22;47983;53.016;-2.260;2023-05-20T09:48:40;16.10;99.90
59307;DHT22;47983;53.016;-2.260;2023-05-20T09:51:09;16.20;99.90
59307;DHT22;47983;53.016;-2.260;2023-05-20T09:53:38;16.30;99.90
59307;DHT22;47983;53.016;-2.260;2023-05-20T09:56:07;16.40;99.90
59307;DHT22;47983;53.016;-2.260;2023-05-20T09:58:38;16.40;99.90
59307;DHT22;47983;53.016;-2.260;2023-05-20T10:01:06;16.30;99.90
59307;DHT22;47983;53.016;-2.260;2023-05-20T10:03:34;16.70;99.90
59307;DHT22;47983;53.016;-2.260;2023-05-20T10:17:16;17.30;99.90
59307;DHT22;47983;53.016;-2.260;2023-05-20T10:19:47;17.40;99.90
59307;DHT22;47983;53.016;-2.260;2023-05-20T10:22:26;17.60;99.70
59307;DHT22;47983;53.016;-2.260;2023-05-20T10:24:59;17.70;98.80
59307;DHT22;47983;53.016;-2.260;2023-05-20T10:27:28;17.80;99.40
59307;DHT22;47983;53.016;-2.260;2023-05-20T10:29:56;17.90;98.80
59307;DHT22;47983;53.016;-2.260;2023-05-20T10:34:56;18.00;97.40
59307;DHT22;47983;53.016;-2.260;2023-05-20T10:37:33;18.10;96.30
59307;DHT22;47983;53.016;-2.260;2023-05-20T10:40:07;18.10;96.20
59307;DHT22;47983;53.016;-2.260;2023-05-20T10:42:36;18.20;95.80
59307;DHT22;47983;53.016;-2.260;2023-05-20T10:45:06;18.30;93.70
59307;DHT22;47983;53.016;-2.260;2023-05-20T10:47:35;18.30;94.20
59307;DHT22;47983;53.016;-2.260;2023-05-20T10:50:04;19.10;94.40
59307;DHT22;47983;53.016;-2.260;2023-05-20T10:52:36;18.60;92.40
59307;DHT22;47983;53.016;-2.260;2023-05-20T10:55:04;18.70;92.20
59307;DHT22;47983;53.016;-2.260;2023-05-20T10:57:36;18.80;92.20
59307;DHT22;47983;53.016;-2.260;2023-05-20T11:00:08;18.90;90.90
59307;DHT22;47983;53.016;-2.260;2023-05-20T11:02:38;19.00;91.50
59307;DHT22;47983;53.016;-2.260;2023-05-20T11:05:10;19.20;91.30
59307;DHT22;47983;53.016;-2.260;2023-05-20T11:07:38;19.30;91.20
59307;DHT22;47983;53.016;-2.260;2023-05-20T11:10:08;19.40;91.00
59307;DHT22;47983;53.016;-2.260;2023-05-20T11:12:36;19.50;91.40
59307;DHT22;47983;53.016;-2.260;2023-05-20T11:15:04;19.70;91.70
59307;DHT22;47983;53.016;-2.260;2023-05-20T11:17:33;19.80;89.40
59307;DHT22;47983;53.016;-2.260;2023-05-20T11:20:01;19.80;89.90
59307;DHT22;47983;53.016;-2.260;2023-05-20T11:22:30;19.90;88.10
59307;DHT22;47983;53.016;-2.260;2023-05-20T11:24:58;19.90;85.00
59307;DHT22;47983;53.016;-2.260;2023-05-20T11:27:27;20.00;84.90
59307;DHT22;47983;53.016;-2.260;2023-05-20T11:29:54;20.00;84.80
59307;DHT22;47983;53.016;-2.260;2023-05-20T11:32:22;20.10;83.40
59307;DHT22;47983;53.016;-2.260;2023-05-20T11:34:50;20.20;81.60
59307;DHT22;47983;53.016;-2.260;2023-05-20T11:37:19;20.30;80.60
59307;DHT22;47983;53.016;-2.260;2023-05-20T11:40:02;20.40;81.50
59307;DHT22;47983;53.016;-2.260;2023-05-20T11:42:35;20.70;80.10
59307;DHT22;47983;53.016;-2.260;2023-05-20T11:45:04;20.70;80.80
59307;DHT22;47983;53.016;-2.260;2023-05-20T11:47:37;20.90;80.50
59307;DHT22;47983;53.016;-2.260;2023-05-20T11:50:08;21.10;78.80
59307;DHT22;47983;53.016;-2.260;2023-05-20T11:52:37;21.30;75.40
59307;DHT22;47983;53.016;-2.260;2023-05-20T11:55:09;21.40;76.40
59307;DHT22;47983;53.016;-2.260;2023-05-20T11:57:38;21.70;77.20
59307;DHT22;47983;53.016;-2.260;2023-05-20T12:00:07;21.90;76.10
59307;DHT22;47983;53.016;-2.260;2023-05-20T12:02:37;22.30;75.00
59307;DHT22;47983;53.016;-2.260;2023-05-20T12:05:07;22.30;76.00
59307;DHT22;47983;53.016;-2.260;2023-05-20T12:07:35;22.50;73.40
59307;DHT22;47983;53.016;-2.260;2023-05-20T12:10:03;22.80;74.40
59307;DHT22;47983;53.016;-2.260;2023-05-20T12:12:32;23.00;71.30
59307;DHT22;47983;53.016;-2.260;2023-05-20T12:15:02;23.30;71.40
59307;DHT22;47983;53.016;-2.260;2023-05-20T12:17:44;23.50;70.70
59307;DHT22;47983;53.016;-2.260;2023-05-20T12:20:15;23.80;71.30
59307;DHT22;47983;53.016;-2.260;2023-05-20T12:22:44;24.00;69.00
59307;DHT22;47983;53.016;-2.260;2023-05-20T12:25:13;24.10;69.00
59307;DHT22;47983;53.016;-2.260;2023-05-20T12:27:42;24.20;69.20
59307;DHT22;47983;53.016;-2.260;2023-05-20T12:30:16;24.40;69.40
59307;DHT22;47983;53.016;-2.260;2023-05-20T12:32:44;24.50;64.80
59307;DHT22;47983;53.016;-2.260;2023-05-20T12:35:14;24.50;65.30
59307;DHT22;47983;53.016;-2.260;2023-05-20T12:37:43;24.70;65.80
59307;DHT22;47983;53.016;-2.260;2023-05-20T12:40:11;24.70;65.60
59307;DHT22;47983;53.016;-2.260;2023-05-20T12:42:40;24.80;64.70
59307;DHT22;47983;53.016;-2.260;2023-05-20T12:45:08;24.90;65.70
59307;DHT22;47983;53.016;-2.260;2023-05-20T12:47:38;24.90;65.80
59307;DHT22;47983;53.016;-2.260;2023-05-20T12:50:06;25.10;67.20
59307;DHT22;47983;53.016;-2.260;2023-05-20T12:52:34;25.30;67.20
59307;DHT22;47983;53.016;-2.260;2023-05-20T12:55:04;25.50;66.10
59307;DHT22;47983;53.016;-2.260;2023-05-20T12:57:41;25.80;67.20
59307;DHT22;47983;53.016;-2.260;2023-05-20T13:00:10;25.90;64.30
59307;DHT22;47983;53.016;-2.260;2023-05-20T13:02:40;26.00;64.40
59307;DHT22;47983;53.016;-2.260;2023-05-20T13:05:09;25.90;64.10
59307;DHT22;47983;53.016;-2.260;2023-05-20T13:07:37;25.80;62.60
59307;DHT22;47983;53.016;-2.260;2023-05-20T13:10:06;25.70;63.10
59307;DHT22;47983;53.016;-2.260;2023-05-20T13:12:34;25.50;63.50
59307;DHT22;47983;53.016;-2.260;2023-05-20T13:15:03;25.10;64.30
59307;DHT22;47983;53.016;-2.260;2023-05-20T13:17:32;25.40;65.00
59307;DHT22;47983;53.016;-2.260;2023-05-20T13:20:00;24.80;65.10
59307;DHT22;47983;53.016;-2.260;2023-05-20T13:22:28;24.90;64.40
59307;DHT22;47983;53.016;-2.260;2023-05-20T13:24:56;25.00;64.70
59307;DHT22;47983;53.016;-2.260;2023-05-20T13:27:24;25.30;63.90
59307;DHT22;47983;53.016;-2.260;2023-05-20T13:29:52;25.30;64.50
59307;DHT22;47983;53.016;-2.260;2023-05-20T13:32:21;25.80;63.90
59307;DHT22;47983;53.016;-2.260;2023-05-20T13:34:49;25.80;64.70
59307;DHT22;47983;53.016;-2.260;2023-05-20T13:37:17;26.00;63.90
59307;DHT22;47983;53.016;-2.260;2023-05-20T13:39:45;26.30;62.70
59307;DHT22;47983;53.016;-2.260;2023-05-20T13:42:13;26.40;62.10
59307;DHT22;47983;53.016;-2.260;2023-05-20T13:44:44;26.60;61.30
59307;DHT22;47983;53.016;-2.260;2023-05-20T13:47:12;26.60;61.60
59307;DHT22;47983;53.016;-2.260;2023-05-20T13:49:40;26.80;62.20
59307;DHT22;47983;53.016;-2.260;2023-05-20T13:52:08;26.80;61.40
59307;DHT22;47983;53.016;-2.260;2023-05-20T13:54:36;26.70;61.90
59307;DHT22;47983;53.016;-2.260;2023-05-20T13:57:04;26.60;62.20
59307;DHT22;47983;53.016;-2.260;2023-05-20T13:59:38;26.60;61.30
59307;DHT22;47983;53.016;-2.260;2023-05-20T14:02:06;26.70;61.10
59307;DHT22;47983;53.016;-2.260;2023-05-20T14:04:34;26.80;60.70
59307;DHT22;47983;53.016;-2.260;2023-05-20T14:07:08;26.80;60.80
59307;DHT22;47983;53.016;-2.260;2023-05-20T14:09:36;27.00;61.40
59307;DHT22;47983;53.016;-2.260;2023-05-20T14:12:08;27.20;60.80
59307;DHT22;47983;53.016;-2.260;2023-05-20T14:14:36;27.50;60.40
59307;DHT22;47983;53.016;-2.260;2023-05-20T14:17:04;27.50;61.20
59307;DHT22;47983;53.016;-2.260;2023-05-20T14:19:32;27.60;61.50
59307;DHT22;47983;53.016;-2.260;2023-05-20T14:21:59;27.60;61.30
59307;DHT22;47983;53.016;-2.260;2023-05-20T14:24:28;27.70;61.90
59307;DHT22;47983;53.016;-2.260;2023-05-20T14:26:55;27.90;60.60
59307;DHT22;47983;53.016;-2.260;2023-05-20T14:29:23;28.00;59.20
59307;DHT22;47983;53.016;-2.260;2023-05-20T14:31:51;28.00;58.90
59307;DHT22;47983;53.016;-2.260;2023-05-20T14:34:20;27.90;59.90
59307;DHT22;47983;53.016;-2.260;2023-05-20T14:36:48;27.90;59.50
59307;DHT22;47983;53.016;-2.260;2023-05-20T14:39:15;27.90;58.90
59307;DHT22;47983;53.016;-2.260;2023-05-20T14:41:44;27.80;59.70
59307;DHT22;47983;53.016;-2.260;2023-05-20T14:44:12;27.80;60.70
59307;DHT22;47983;53.016;-2.260;2023-05-20T14:46:39;27.90;59.30
59307;DHT22;47983;53.016;-2.260;2023-05-20T14:49:07;27.90;60.00
59307;DHT22;47983;53.016;-2.260;2023-05-20T14:51:36;28.00;60.00
59307;DHT22;47983;53.016;-2.260;2023-05-20T14:54:04;28.10;59.30
59307;DHT22;47983;53.016;-2.260;2023-05-20T14:56:32;28.00;59.20
59307;DHT22;47983;53.016;-2.260;2023-05-20T14:59:00;27.60;58.70
59307;DHT22;47983;53.016;-2.260;2023-05-20T15:01:28;27.50;59.50
59307;DHT22;47983;53.016;-2.260;2023-05-20T15:04:00;27.30;59.90
59307;DHT22;47983;53.016;-2.260;2023-05-20T15:06:27;27.20;60.30
59307;DHT22;47983;53.016;-2.260;2023-05-20T15:08:57;27.30;59.70
59307;DHT22;47983;53.016;-2.260;2023-05-20T15:11:25;26.90;59.40
59307;DHT22;47983;53.016;-2.260;2023-05-20T15:13:52;26.30;59.80
59307;DHT22;47983;53.016;-2.260;2023-05-20T15:16:20;25.30;61.10
59307;DHT22;47983;53.016;-2.260;2023-05-20T15:18:51;25.30;62.20
59307;DHT22;47983;53.016;-2.260;2023-05-20T15:21:19;25.40;61.00
59307;DHT22;47983;53.016;-2.260;2023-05-20T15:23:47;25.80;60.30
59307;DHT22;47983;53.016;-2.260;2023-05-20T15:26:15;25.80;61.00
59307;DHT22;47983;53.016;-2.260;2023-05-20T15:28:44;26.20;61.40
59307;DHT22;47983;53.016;-2.260;2023-05-20T15:31:14;26.50;61.00
59307;DHT22;47983;53.016;-2.260;2023-05-20T15:33:43;26.60;60.10
59307;DHT22;47983;53.016;-2.260;2023-05-20T15:36:11;26.60;60.70
59307;DHT22;47983;53.016;-2.260;2023-05-20T15:38:39;26.40;59.10
59307;DHT22;47983;53.016;-2.260;2023-05-20T15:41:07;26.70;59.00
59307;DHT22;47983;53.016;-2.260;2023-05-20T15:43:36;26.90;59.90
59307;DHT22;47983;53.016;-2.260;2023-05-20T15:46:03;27.20;59.60
59307;DHT22;47983;53.016;-2.260;2023-05-20T15:48:32;27.50;59.80
59307;DHT22;47983;53.016;-2.260;2023-05-20T15:51:01;27.70;59.30
59307;DHT22;47983;53.016;-2.260;2023-05-20T15:53:29;27.80;58.10